sensor_id;sensor_type;location;lat;lon;timestamp;temperature;humidity
28484;DHT22;15704;48.834;8.736;2023-08-07T00:02:01;10.40;99.90
28484;DHT22;15704;48.834;8.736;2023-08-07T00:04:28;10.40;99.90
28484;DHT22;15704;48.834;8.736;2023-08-07T00:06:55;10.40;99.90
28484;DHT22;15704;48.834;8.736;2023-08-07T00:09:22;10.30;99.90
28484;DHT22;15704;48.834;8.736;2023-08-07T00:11:48;10.30;99.90
28484;DHT22;15704;48.834;8.736;2023-08-07T00:14:15;10.30;99.90
28484;DHT22;15704;48.834;8.736;2023-08-07T00:16:42;10.30;99.90
28484;DHT22;15704;48.834;8.736;2023-08-07T00:19:10;10.30;99.90
28484;DHT22;15704;48.834;8.736;2023-08-07T00:21:37;10.30;99.90
28484;DHT22;15704;48.834;8.736;2023-08-07T00:24:05;10.30;99.90
28484;DHT22;15704;48.834;8.736;2023-08-07T00:26:32;10.30;99.90
28484;DHT22;15704;48.834;8.736;2023-08-07T00:28:59;10.30;99.90
28484;DHT22;15704;48.834;8.736;2023-08-07T00:31:26;10.30;99.90
28484;DHT22;15704;48.834;8.736;2023-08-07T00:33:53;10.40;99.90
28484;DHT22;15704;48.834;8.736;2023-08-07T00:36:21;10.40;99.90
28484;DHT22;15704;48.834;8.736;2023-08-07T00:38:48;10.40;99.90
28484;DHT22;15704;48.834;8.736;2023-08-07T00:41:17;10.40;99.90
28484;DHT22;15704;48.834;8.736;2023-08-07T00:43:44;10.40;99.90
28484;DHT22;15704;48.834;8.736;2023-08-07T00:46:11;10.40;99.90
28484;DHT22;15704;48.834;8.736;2023-08-07T00:48:37;10.40;99.90
28484;DHT22;15704;48.834;8.736;2023-08-07T00:51:05;10.40;99.90
28484;DHT22;15704;48.834;8.736;2023-08-07T00:53:38;10.40;99.90
28484;DHT22;15704;48.834;8.736;2023-08-07T00:56:05;10.40;99.90
28484;DHT22;15704;48.834;8.736;2023-08-07T00:58:32;10.40;99.90
28484;DHT22;15704;48.834;8.736;2023-08-07T01:01:00;10.50;99.90
28484;DHT22;15704;48.834;8.736;2023-08-07T01:03:27;10.50;99.90
28484;DHT22;15704;48.834;8.736;2023-08-07T01:05:54;10.50;99.90
28484;DHT22;15704;48.834;8.736;2023-08-07T01:08:21;10.50;99.90
28484;DHT22;15704;48.834;8.736;2023-08-07T01:14:00;10.50;99.90
28484;DHT22;15704;48.834;8.736;2023-08-07T01:16:33;10.40;99.90
28484;DHT22;15704;48.834;8.736;2023-08-07T01:19:00;10.50;99.90
28484;DHT22;15704;48.834;8.736;2023-08-07T01:21:29;10.40;99.90
28484;DHT22;15704;48.834;8.736;2023-08-07T01:23:56;10.40;99.90
28484;DHT22;15704;48.834;8.736;2023-08-07T01:26:23;10.40;99.90
28484;DHT22;15704;48.834;8.736;2023-08-07T01:29:00;10.50;99.90
28484;DHT22;15704;48.834;8.736;2023-08-07T01:31:33;10.40;99.90
28484;DHT22;15704;48.834;8.736;2023-08-07T01:34:11;10.40;99.90
28484;DHT22;15704;48.834;8.736;2023-08-07T01:36:40;10.40;99.90
28484;DHT22;15704;48.834;8.736;2023-08-07T01:39:08;10.40;99.90
28484;DHT22;15704;48.834;8.736;2023-08-07T01:41:36;10.40;99.90
28484;DHT22;15704;48.834;8.736;2023-08-07T01:44:03;10.30;99.90
28484;DHT22;15704;48.834;8.736;2023-08-07T01:46:30;10.30;99.90
28484;DHT22;15704;48.834;8.736;2023-08-07T01:48:57;10.30;99.90
28484;DHT22;15704;48.834;8.736;2023-08-07T01:51:24;10.40;99.90
28484;DHT22;15704;48.834;8.736;2023-08-07T01:53:51;10.40;99.90
28484;DHT22;15704;48.834;8.736;2023-08-07T01:56:18;10.40;99.90
28484;DHT22;15704;48.834;8.736;2023-08-07T01:58:44;10.40;99.90
28484;DHT22;15704;48.834;8.736;2023-08-07T02:01:11;10.40;99.90
28484;DHT22;15704;48.834;8.736;2023-08-07T02:03:38;10.30;99.90
28484;DHT22;15704;48.834;8.736;2023-08-07T02:06:05;10.30;99.90
28484;DHT22;15704;48.834;8.736;2023-08-07T02:08:32;10.40;99.90
28484;DHT22;15704;48.834;8.736;2023-08-07T02:10:58;10.30;99.90
28484;DHT22;15704;48.834;8.736;2023-08-07T02:13:28;10.30;99.90
28484;DHT22;15704;48.834;8.736;2023-08-07T02:15:54;10.30;99.90
28484;DHT22;15704;48.834;8.736;2023-08-07T02:18:21;10.30;99.90
28484;DHT22;15704;48.834;8.736;2023-08-07T02:20:48;10.20;99.90
28484;DHT22;15704;48.834;8.736;2023-08-07T02:23:15;10.20;99.90
28484;DHT22;15704;48.834;8.736;2023-08-07T02:25:42;10.20;99.90
28484;DHT22;15704;48.834;8.736;2023-08-07T02:28:08;10.20;99.90
28484;DHT22;15704;48.834;8.736;2023-08-07T02:30:35;10.20;99.90
28484;DHT22;15704;48.834;8.736;2023-08-07T02:33:02;10.10;99.90
28484;DHT22;15704;48.834;8.736;2023-08-07T02:35:29;10.10;99.90
28484;DHT22;15704;48.834;8.736;2023-08-07T02:37:55;10.10;99.90
28484;DHT22;15704;48.834;8.736;2023-08-07T02:40:22;10.00;99.90
28484;DHT22;15704;48.834;8.736;2023-08-07T02:42:49;9.90;99.90
28484;DHT22;15704;48.834;8.736;2023-08-07T02:45:16;9.90;99.90
28484;DHT22;15704;48.834;8.736;2023-08-07T02:47:42;9.90;99.90
28484;DHT22;15704;48.834;8.736;2023-08-07T02:50:09;9.90;99.90
28484;DHT22;15704;48.834;8.736;2023-08-07T02:52:36;9.90;99.90
28484;DHT22;15704;48.834;8.736;2023-08-07T02:55:03;9.80;99.90
28484;DHT22;15704;48.834;8.736;2023-08-07T02:57:30;9.90;99.90
28484;DHT22;15704;48.834;8.736;2023-08-07T02:59:57;9.80;99.90
28484;DHT22;15704;48.834;8.736;2023-08-07T03:02:23;9.90;99.90
28484;DHT22;15704;48.834;8.736;2023-08-07T03:04:53;9.80;99.90
28484;DHT22;15704;48.834;8.736;2023-08-07T03:07:20;9.80;99.90
28484;DHT22;15704;48.834;8.736;2023-08-07T03:09:47;9.80;99.90
28484;DHT22;15704;48.834;8.736;2023-08-07T03:12:16;9.80;99.90
28484;DHT22;15704;48.834;8.736;2023-08-07T03:14:43;9.80;99.90
28484;DHT22;15704;48.834;8.736;2023-08-07T03:17:10;9.90;99.90
28484;DHT22;15704;48.834;8.736;2023-08-07T03:19:36;9.90;99.90
28484;DHT22;15704;48.834;8.736;2023-08-07T03:22:04;9.90;99.90
28484;DHT22;15704;48.834;8.736;2023-08-07T03:24:30;9.90;99.90
28484;DHT22;15704;48.834;8.736;2023-08-07T03:26:57;9.90;99.90
28484;DHT22;15704;48.834;8.736;2023-08-07T03:29:24;10.00;99.90
28484;DHT22;15704;48.834;8.736;2023-08-07T03:31:50;9.90;99.90
28484;DHT22;15704;48.834;8.736;2023-08-07T03:34:17;9.90;99.90
28484;DHT22;15704;48.834;8.736;2023-08-07T03:36:45;10.00;99.90
28484;DHT22;15704;48.834;8.736;2023-08-07T03:39:12;10.00;99.90
28484;DHT22;15704;48.834;8.736;2023-08-07T03:41:39;9.90;99.90
28484;DHT22;15704;48.834;8.736;2023-08-07T03:44:05;10.00;99.90
28484;DHT22;15704;48.834;8.736;2023-08-07T03:46:33;10.00;99.90
28484;DHT22;15704;48.834;8.736;2023-08-07T03:49:00;10.00;99.90
28484;DHT22;15704;48.834;8.736;2023-08-07T03:51:29;10.00;99.90
28484;DHT22;15704;48.834;8.736;2023-08-07T03:53:57;9.90;99.90
28484;DHT22;15704;48.834;8.736;2023-08-07T03:56:24;9.90;99.90
28484;DHT22;15704;48.834;8.736;2023-08-07T03:58:50;9.90;99.90
28484;DHT22;15704;48.834;8.736;2023-08-07T04:01:17;9.90;99.90
28484;DHT22;15704;48.834;8.736;2023-08-07T04:03:46;9.90;99.90
28484;DHT22;15704;48.834;8.736;2023-08-07T04:06:14;9.90;99.90
28484;DHT22;15704;48.834;8.736;2023-08-07T04:08:45;9.90;99.90
28484;DHT22;15704;48.834;8.736;2023-08-07T04:11:11;9.90;99.90
28484;DHT22;15704;48.834;8.736;2023-08-07T04:13:38;9.90;99.90
28484;DHT22;15704;48.834;8.736;2023-08-07T04:16:05;10.00;99.90
28484;DHT22;15704;48.834;8.736;2023-08-07T04:18:33;10.10;99.90
28484;DHT22;15704;48.834;8.736;2023-08-07T04:21:00;10.10;99.90
28484;DHT22;15704;48.834;8.736;2023-08-07T04:23:27;10.10;99.90
28484;DHT22;15704;48.834;8.736;2023-08-07T04:25:54;10.20;99.90
28484;DHT22;15704;48.834;8.736;2023-08-07T04:28:21;10.20;99.90
28484;DHT22;15704;48.834;8.736;2023-08-07T04:30:51;10.20;99.90
28484;DHT22;15704;48.834;8.736;2023-08-07T04:33:20;10.30;99.90
28484;DHT22;15704;48.834;8.736;2023-08-07T04:35:47;10.30;99.90
28484;DHT22;15704;48.834;8.736;2023-08-07T04:38:14;10.40;99.90
28484;DHT22;15704;48.834;8.736;2023-08-07T04:40:48;10.40;99.90
28484;DHT22;15704;48.834;8.736;2023-08-07T04:43:16;10.40;99.90
28484;DHT22;15704;48.834;8.736;2023-08-07T04:45:43;10.30;99.90
28484;DHT22;15704;48.834;8.736;2023-08-07T04:48:12;10.40;99.90
28484;DHT22;15704;48.834;8.736;2023-08-07T04:50:40;10.40;99.90
28484;DHT22;15704;48.834;8.736;2023-08-07T04:53:07;10.40;99.90
28484;DHT22;15704;48.834;8.736;2023-08-07T04:55:34;10.50;99.90
28484;DHT22;15704;48.834;8.736;2023-08-07T04:58:00;10.50;99.90
28484;DHT22;15704;48.834;8.736;2023-08-07T05:00:28;10.50;99.90
28484;DHT22;15704;48.834;8.736;2023-08-07T05:02:55;10.60;99.90
28484;DHT22;15704;48.834;8.736;2023-08-07T05:05:22;10.60;99.90
28484;DHT22;15704;48.834;8.736;2023-08-07T05:07:50;10.70;99.90
28484;DHT22;15704;48.834;8.736;2023-08-07T05:10:17;10.80;99.90
28484;DHT22;15704;48.834;8.736;2023-08-07T05:12:44;10.80;99.90
28484;DHT22;15704;48.834;8.736;2023-08-07T05:15:10;10.80;99.90
28484;DHT22;15704;48.834;8.736;2023-08-07T05:17:37;10.90;99.90
28484;DHT22;15704;48.834;8.736;2023-08-07T05:20:05;10.90;99.90
28484;DHT22;15704;48.834;8.736;2023-08-07T05:22:32;10.90;99.90
28484;DHT22;15704;48.834;8.736;2023-08-07T05:24:59;11.00;99.90
28484;DHT22;15704;48.834;8.736;2023-08-07T05:27:25;11.00;99.90
28484;DHT22;15704;48.834;8.736;2023-08-07T05:29:52;11.10;99.90
28484;DHT22;15704;48.834;8.736;2023-08-07T05:32:19;11.00;99.90
28484;DHT22;15704;48.834;8.736;2023-08-07T05:34:46;11.10;99.90
28484;DHT22;15704;48.834;8.736;2023-08-07T05:37:13;11.10;99.90
28484;DHT22;15704;48.834;8.736;2023-08-07T05:39:40;11.10;99.90
28484;DHT22;15704;48.834;8.736;2023-08-07T05:42:07;11.20;99.90
28484;DHT22;15704;48.834;8.736;2023-08-07T05:44:34;11.10;99.90
28484;DHT22;15704;48.834;8.736;2023-08-07T05:47:01;11.20;99.90
28484;DHT22;15704;48.834;8.736;2023-08-07T05:49:28;11.20;99.90
28484;DHT22;15704;48.834;8.736;2023-08-07T05:51:55;11.20;99.90
28484;DHT22;15704;48.834;8.736;2023-08-07T05:54:22;11.20;99.90
28484;DHT22;15704;48.834;8.736;2023-08-07T05:56:49;11.20;99.90
28484;DHT22;15704;48.834;8.736;2023-08-07T05:59:15;11.20;99.90
28484;DHT22;15704;48.834;8.736;2023-08-07T06:01:42;11.30;99.90
28484;DHT22;15704;48.834;8.736;2023-08-07T06:04:09;11.40;99.90
28484;DHT22;15704;48.834;8.736;2023-08-07T06:06:36;11.50;99.90
28484;DHT22;15704;48.834;8.736;2023-08-07T06:09:03;11.50;99.90
28484;DHT22;15704;48.834;8.736;2023-08-07T06:11:31;11.50;99.90
28484;DHT22;15704;48.834;8.736;2023-08-07T06:13:58;11.50;99.90
28484;DHT22;15704;48.834;8.736;2023-08-07T06:16:26;11.70;99.90
28484;DHT22;15704;48.834;8.736;2023-08-07T06:18:54;11.80;99.90
28484;DHT22;15704;48.834;8.736;2023-08-07T06:21:21;11.90;99.90
28484;DHT22;15704;48.834;8.736;2023-08-07T06:23:47;11.90;99.90
28484;DHT22;15704;48.834;8.736;2023-08-07T06:26:14;11.90;99.90
28484;DHT22;15704;48.834;8.736;2023-08-07T06:28:42;12.00;99.90
28484;DHT22;15704;48.834;8.736;2023-08-07T06:31:10;11.90;99.90
28484;DHT22;15704;48.834;8.736;2023-08-07T06:33:38;12.00;99.90
28484;DHT22;15704;48.834;8.736;2023-08-07T06:36:06;12.10;99.90
28484;DHT22;15704;48.834;8.736;2023-08-07T06:38:33;12.10;99.90
28484;DHT22;15704;48.834;8.736;2023-08-07T06:41:00;12.00;99.90
28484;DHT22;15704;48.834;8.736;2023-08-07T06:43:26;12.20;99.90
28484;DHT22;15704;48.834;8.736;2023-08-07T06:45:55;12.30;99.90
28484;DHT22;15704;48.834;8.736;2023-08-07T06:48:22;12.30;99.90
28484;DHT22;15704;48.834;8.736;2023-08-07T06:50:50;12.40;99.90
28484;DHT22;15704;48.834;8.736;2023-08-07T06:53:18;12.40;99.90
28484;DHT22;15704;48.834;8.736;2023-08-07T06:55:45;12.50;99.90
28484;DHT22;15704;48.834;8.736;2023-08-07T06:58:12;12.40;99.90
28484;DHT22;15704;48.834;8.736;2023-08-07T07:00:39;12.40;99.90
28484;DHT22;15704;48.834;8.736;2023-08-07T07:03:06;12.50;99.90
28484;DHT22;15704;48.834;8.736;2023-08-07T07:05:34;12.60;99.90
28484;DHT22;15704;48.834;8.736;2023-08-07T07:08:01;13.10;99.90
28484;DHT22;15704;48.834;8.736;2023-08-07T07:10:28;13.10;99.90
28484;DHT22;15704;48.834;8.736;2023-08-07T07:12:55;13.40;99.90
28484;DHT22;15704;48.834;8.736;2023-08-07T07:15:22;13.50;99.90
28484;DHT22;15704;48.834;8.736;2023-08-07T07:17:48;13.50;99.90
28484;DHT22;15704;48.834;8.736;2023-08-07T07:20:15;13.70;99.90
28484;DHT22;15704;48.834;8.736;2023-08-07T07:22:42;14.10;99.90
28484;DHT22;15704;48.834;8.736;2023-08-07T07:25:09;13.90;99.90
28484;DHT22;15704;48.834;8.736;2023-08-07T07:27:36;13.70;99.90
28484;DHT22;15704;48.834;8.736;2023-08-07T07:30:03;13.70;99.90
28484;DHT22;15704;48.834;8.736;2023-08-07T07:32:30;13.80;99.90
28484;DHT22;15704;48.834;8.736;2023-08-07T07:34:57;14.00;99.90
28484;DHT22;15704;48.834;8.736;2023-08-07T07:37:24;13.90;99.90
28484;DHT22;15704;48.834;8.736;2023-08-07T07:39:51;13.70;99.90
28484;DHT22;15704;48.834;8.736;2023-08-07T07:42:19;13.80;99.90
28484;DHT22;15704;48.834;8.736;2023-08-07T07:44:46;13.60;99.90
28484;DHT22;15704;48.834;8.736;2023-08-07T07:47:12;13.60;99.90
28484;DHT22;15704;48.834;8.736;2023-08-07T07:49:45;13.70;99.90
28484;DHT22;15704;48.834;8.736;2023-08-07T07:52:13;13.70;99.90
28484;DHT22;15704;48.834;8.736;2023-08-07T07:54:40;13.70;99.90
28484;DHT22;15704;48.834;8.736;2023-08-07T07:57:07;13.60;99.90
28484;DHT22;15704;48.834;8.736;2023-08-07T07:59:33;13.70;99.90
28484;DHT22;15704;48.834;8.736;2023-08-07T08:02:00;13.50;99.90
28484;DHT22;15704;48.834;8.736;2023-08-07T08:04:27;13.60;99.90
28484;DHT22;15704;48.834;8.736;2023-08-07T08:06:54;13.60;99.90
28484;DHT22;15704;48.834;8.736;2023-08-07T08:09:21;13.90;99.90
28484;DHT22;15704;48.834;8.736;2023-08-07T08:11:48;14.20;99.90
28484;DHT22;15704;48.834;8.736;2023-08-07T08:14:15;14.60;99.90
28484;DHT22;15704;48.834;8.736;2023-08-07T08:16:41;14.70;99.90
28484;DHT22;15704;48.834;8.736;2023-08-07T08:19:08;14.60;99.90
28484;DHT22;15704;48.834;8.736;2023-08-07T08:21:36;14.20;99.90
28484;DHT22;15704;48.834;8.736;2023-08-07T08:24:03;14.00;99.90
28484;DHT22;15704;48.834;8.736;2023-08-07T08:26:30;14.00;99.90
28484;DHT22;15704;48.834;8.736;2023-08-07T08:28:56;14.30;99.90
28484;DHT22;15704;48.834;8.736;2023-08-07T08:31:23;14.20;99.90
28484;DHT22;15704;48.834;8.736;2023-08-07T08:33:51;14.40;99.90
28484;DHT22;15704;48.834;8.736;2023-08-07T08:36:18;14.80;99.90
28484;DHT22;15704;48.834;8.736;2023-08-07T08:38:44;15.00;99.90
28484;DHT22;15704;48.834;8.736;2023-08-07T08:41:13;15.40;99.90
28484;DHT22;15704;48.834;8.736;2023-08-07T08:43:40;15.40;99.90
28484;DHT22;15704;48.834;8.736;2023-08-07T08:46:09;15.30;99.90
28484;DHT22;15704;48.834;8.736;2023-08-07T08:48:39;15.10;99.90
28484;DHT22;15704;48.834;8.736;2023-08-07T08:51:08;15.30;99.90
28484;DHT22;15704;48.834;8.736;2023-08-07T08:53:35;14.70;99.90
28484;DHT22;15704;48.834;8.736;2023-08-07T08:56:02;15.00;99.90
28484;DHT22;15704;48.834;8.736;2023-08-07T08:58:30;14.80;99.90
28484;DHT22;15704;48.834;8.736;2023-08-07T09:00:57;14.30;99.90
28484;DHT22;15704;48.834;8.736;2023-08-07T09:03:24;14.30;99.90
28484;DHT22;15704;48.834;8.736;2023-08-07T09:05:53;14.30;99.90
28484;DHT22;15704;48.834;8.736;2023-08-07T09:08:26;14.30;99.90
28484;DHT22;15704;48.834;8.736;2023-08-07T09:10:53;14.10;99.90
28484;DHT22;15704;48.834;8.736;2023-08-07T09:13:22;14.30;99.90
28484;DHT22;15704;48.834;8.736;2023-08-07T09:15:51;14.30;99.90
28484;DHT22;15704;48.834;8.736;2023-08-07T09:18:19;14.90;99.90
28484;DHT22;15704;48.834;8.736;2023-08-07T09:20:47;14.90;99.90
28484;DHT22;15704;48.834;8.736;2023-08-07T09:23:16;14.90;99.90
28484;DHT22;15704;48.834;8.736;2023-08-07T09:25:44;15.00;99.90
28484;DHT22;15704;48.834;8.736;2023-08-07T09:28:11;15.00;99.90
28484;DHT22;15704;48.834;8.736;2023-08-07T09:30:38;14.90;99.90
28484;DHT22;15704;48.834;8.736;2023-08-07T09:33:05;14.90;99.90
28484;DHT22;15704;48.834;8.736;2023-08-07T09:35:33;14.90;99.90
28484;DHT22;15704;48.834;8.736;2023-08-07T09:38:01;14.70;99.90
28484;DHT22;15704;48.834;8.736;2023-08-07T09:40:29;15.00;99.90
28484;DHT22;15704;48.834;8.736;2023-08-07T09:42:57;14.70;99.90
28484;DHT22;15704;48.834;8.736;2023-08-07T09:45:25;14.80;99.90
28484;DHT22;15704;48.834;8.736;2023-08-07T09:48:05;15.00;99.90
28484;DHT22;15704;48.834;8.736;2023-08-07T09:50:35;14.80;99.90
28484;DHT22;15704;48.834;8.736;2023-08-07T09:53:05;14.60;99.90
28484;DHT22;15704;48.834;8.736;2023-08-07T09:55:32;14.60;99.90
28484;DHT22;15704;48.834;8.736;2023-08-07T09:58:00;14.40;99.90
28484;DHT22;15704;48.834;8.736;2023-08-07T10:00:27;14.60;99.90
28484;DHT22;15704;48.834;8.736;2023-08-07T10:03:00;14.90;99.90
28484;DHT22;15704;48.834;8.736;2023-08-07T10:05:26;15.10;99.90
28484;DHT22;15704;48.834;8.736;2023-08-07T10:07:57;15.60;99.90
28484;DHT22;15704;48.834;8.736;2023-08-07T10:10:24;15.50;99.90
28484;DHT22;15704;48.834;8.736;2023-08-07T10:12:53;15.70;99.90
28484;DHT22;15704;48.834;8.736;2023-08-07T10:15:21;16.30;99.90
28484;DHT22;15704;48.834;8.736;2023-08-07T10:17:48;16.10;99.90
28484;DHT22;15704;48.834;8.736;2023-08-07T10:20:15;16.40;99.90
28484;DHT22;15704;48.834;8.736;2023-08-07T10:22:43;16.40;99.90
28484;DHT22;15704;48.834;8.736;2023-08-07T10:25:10;16.00;99.90
28484;DHT22;15704;48.834;8.736;2023-08-07T10:27:40;15.60;99.90
28484;DHT22;15704;48.834;8.736;2023-08-07T10:30:10;16.20;99.90
28484;DHT22;15704;48.834;8.736;2023-08-07T10:32:41;16.40;99.90
28484;DHT22;15704;48.834;8.736;2023-08-07T10:35:09;16.30;99.90
28484;DHT22;15704;48.834;8.736;2023-08-07T10:37:44;16.20;99.90
28484;DHT22;15704;48.834;8.736;2023-08-07T10:40:12;16.30;99.90
28484;DHT22;15704;48.834;8.736;2023-08-07T10:42:59;16.50;99.90
28484;DHT22;15704;48.834;8.736;2023-08-07T10:45:40;16.50;99.90
28484;DHT22;15704;48.834;8.736;2023-08-07T10:48:13;16.40;99.90
28484;DHT22;15704;48.834;8.736;2023-08-07T10:50:57;16.20;99.90
28484;DHT22;15704;48.834;8.736;2023-08-07T10:56:05;16.30;99.90
28484;DHT22;15704;48.834;8.736;2023-08-07T10:58:36;16.60;99.90
28484;DHT22;15704;48.834;8.736;2023-08-07T11:03:44;16.60;99.90
28484;DHT22;15704;48.834;8.736;2023-08-07T11:06:12;16.00;99.90
28484;DHT22;15704;48.834;8.736;2023-08-07T11:08:39;15.50;99.90
28484;DHT22;15704;48.834;8.736;2023-08-07T11:11:06;15.30;99.90
28484;DHT22;15704;48.834;8.736;2023-08-07T11:13:33;15.00;99.90
28484;DHT22;15704;48.834;8.736;2023-08-07T11:16:02;14.60;99.90
28484;DHT22;15704;48.834;8.736;2023-08-07T11:18:30;14.40;99.90
28484;DHT22;15704;48.834;8.736;2023-08-07T11:20:57;14.50;99.90
28484;DHT22;15704;48.834;8.736;2023-08-07T11:23:25;14.40;99.90
28484;DHT22;15704;48.834;8.736;2023-08-07T11:25:52;14.50;99.90
28484;DHT22;15704;48.834;8.736;2023-08-07T11:28:20;14.40;99.90
28484;DHT22;15704;48.834;8.736;2023-08-07T11:30:49;14.40;99.90
28484;DHT22;15704;48.834;8.736;2023-08-07T11:33:21;14.60;99.90
28484;DHT22;15704;48.834;8.736;2023-08-07T11:35:48;14.80;99.90
28484;DHT22;15704;48.834;8.736;2023-08-07T11:38:31;15.00;99.90
28484;DHT22;15704;48.834;8.736;2023-08-07T11:41:03;14.90;99.90
28484;DHT22;15704;48.834;8.736;2023-08-07T11:43:30;15.00;99.90
28484;DHT22;15704;48.834;8.736;2023-08-07T11:45:58;14.80;99.90
28484;DHT22;15704;48.834;8.736;2023-08-07T11:48:31;14.90;99.90
28484;DHT22;15704;48.834;8.736;2023-08-07T11:50:58;14.90;99.90
28484;DHT22;15704;48.834;8.736;2023-08-07T11:53:27;15.00;99.90
28484;DHT22;15704;48.834;8.736;2023-08-07T11:55:57;15.30;99.90
28484;DHT22;15704;48.834;8.736;2023-08-07T11:58:26;15.30;99.90
28484;DHT22;15704;48.834;8.736;2023-08-07T12:00:54;15.50;99.90
28484;DHT22;15704;48.834;8.736;2023-08-07T12:03:24;15.50;99.90
28484;DHT22;15704;48.834;8.736;2023-08-07T12:05:54;15.40;99.90
28484;DHT22;15704;48.834;8.736;2023-08-07T12:08:22;15.30;99.90
28484;DHT22;15704;48.834;8.736;2023-08-07T12:10:50;15.40;99.90
28484;DHT22;15704;48.834;8.736;2023-08-07T12:13:20;15.70;99.90
28484;DHT22;15704;48.834;8.736;2023-08-07T12:15:51;16.10;99.90
28484;DHT22;15704;48.834;8.736;2023-08-07T12:18:19;16.30;99.90
28484;DHT22;15704;48.834;8.736;2023-08-07T12:20:46;16.50;99.90
28484;DHT22;15704;48.834;8.736;2023-08-07T12:23:17;16.60;99.90
28484;DHT22;15704;48.834;8.736;2023-08-07T12:25:44;17.10;99.90
28484;DHT22;15704;48.834;8.736;2023-08-07T12:28:11;16.60;99.90
28484;DHT22;15704;48.834;8.736;2023-08-07T12:30:38;16.90;99.90
28484;DHT22;15704;48.834;8.736;2023-08-07T12:33:06;17.00;99.90
28484;DHT22;15704;48.834;8.736;2023-08-07T12:35:34;16.60;99.90
28484;DHT22;15704;48.834;8.736;2023-08-07T12:38:01;16.50;99.90
28484;DHT22;15704;48.834;8.736;2023-08-07T12:40:32;16.30;99.90
28484;DHT22;15704;48.834;8.736;2023-08-07T12:43:03;16.00;99.90
28484;DHT22;15704;48.834;8.736;2023-08-07T12:45:29;15.80;99.90
28484;DHT22;15704;48.834;8.736;2023-08-07T12:48:00;15.80;99.90
28484;DHT22;15704;48.834;8.736;2023-08-07T12:50:27;15.80;99.90
28484;DHT22;15704;48.834;8.736;2023-08-07T12:52:55;15.70;99.90
28484;DHT22;15704;48.834;8.736;2023-08-07T12:55:22;15.80;99.90
28484;DHT22;15704;48.834;8.736;2023-08-07T12:57:48;15.90;99.90
28484;DHT22;15704;48.834;8.736;2023-08-07T13:00:16;15.90;99.90
28484;DHT22;15704;48.834;8.736;2023-08-07T13:02:45;16.30;99.90
28484;DHT22;15704;48.834;8.736;2023-08-07T13:05:13;16.30;99.90
28484;DHT22;15704;48.834;8.736;2023-08-07T13:07:41;16.70;99.90
28484;DHT22;15704;48.834;8.736;2023-08-07T13:10:10;16.90;99.90
28484;DHT22;15704;48.834;8.736;2023-08-07T13:12:39;17.00;99.90
28484;DHT22;15704;48.834;8.736;2023-08-07T13:15:07;17.00;99.90
28484;DHT22;15704;48.834;8.736;2023-08-07T13:17:35;16.90;99.90
28484;DHT22;15704;48.834;8.736;2023-08-07T13:20:04;16.90;99.90
28484;DHT22;15704;48.834;8.736;2023-08-07T13:22:35;16.90;99.90
28484;DHT22;15704;48.834;8.736;2023-08-07T13:25:02;17.60;99.90
28484;DHT22;15704;48.834;8.736;2023-08-07T13:27:31;17.80;99.90
28484;DHT22;15704;48.834;8.736;2023-08-07T13:29:57;18.30;99.90
28484;DHT22;15704;48.834;8.736;2023-08-07T13:32:25;18.40;99.90
28484;DHT22;15704;48.834;8.736;2023-08-07T13:34:53;18.10;99.90
28484;DHT22;15704;48.834;8.736;2023-08-07T13:37:20;18.40;99.90
28484;DHT22;15704;48.834;8.736;2023-08-07T13:39:47;18.20;99.90
28484;DHT22;15704;48.834;8.736;2023-08-07T13:42:16;17.80;99.90
28484;DHT22;15704;48.834;8.736;2023-08-07T13:44:42;17.50;99.90
28484;DHT22;15704;48.834;8.736;2023-08-07T13:47:11;17.90;99.90
28484;DHT22;15704;48.834;8.736;2023-08-07T13:49:40;17.70;99.90
28484;DHT22;15704;48.834;8.736;2023-08-07T13:52:08;17.60;99.90
28484;DHT22;15704;48.834;8.736;2023-08-07T13:54:34;17.50;99.90
28484;DHT22;15704;48.834;8.736;2023-08-07T13:57:01;17.30;99.90
28484;DHT22;15704;48.834;8.736;2023-08-07T13:59:28;17.30;99.90
28484;DHT22;15704;48.834;8.736;2023-08-07T14:01:55;17.10;99.90
28484;DHT22;15704;48.834;8.736;2023-08-07T14:04:23;16.90;99.90
28484;DHT22;15704;48.834;8.736;2023-08-07T14:06:50;16.80;99.90
28484;DHT22;15704;48.834;8.736;2023-08-07T14:09:17;16.80;99.90
28484;DHT22;15704;48.834;8.736;2023-08-07T14:11:45;16.90;99.90
28484;DHT22;15704;48.834;8.736;2023-08-07T14:14:11;16.80;99.90
28484;DHT22;15704;48.834;8.736;2023-08-07T14:16:38;17.00;99.90
28484;DHT22;15704;48.834;8.736;2023-08-07T14:19:06;17.00;99.90
28484;DHT22;15704;48.834;8.736;2023-08-07T14:21:32;17.10;99.90
28484;DHT22;15704;48.834;8.736;2023-08-07T14:23:59;17.00;99.90
28484;DHT22;15704;48.834;8.736;2023-08-07T14:26:26;16.90;99.90
28484;DHT22;15704;48.834;8.736;2023-08-07T14:28:53;17.00;99.90
28484;DHT22;15704;48.834;8.736;2023-08-07T14:31:19;17.40;99.90
28484;DHT22;15704;48.834;8.736;2023-08-07T14:33:46;17.30;99.90
28484;DHT22;15704;48.834;8.736;2023-08-07T14:36:13;17.10;99.90
28484;DHT22;15704;48.834;8.736;2023-08-07T14:38:41;16.90;99.90
28484;DHT22;15704;48.834;8.736;2023-08-07T14:41:08;16.90;99.90
28484;DHT22;15704;48.834;8.736;2023-08-07T14:43:35;16.60;99.90
28484;DHT22;15704;48.834;8.736;2023-08-07T14:46:01;16.60;99.90
28484;DHT22;15704;48.834;8.736;2023-08-07T14:48:28;16.60;99.90
28484;DHT22;15704;48.834;8.736;2023-08-07T14:50:55;16.70;99.90
28484;DHT22;15704;48.834;8.736;2023-08-07T14:53:24;17.20;99.90
28484;DHT22;15704;48.834;8.736;2023-08-07T14:55:51;17.60;99.90
28484;DHT22;15704;48.834;8.736;2023-08-07T14:58:19;17.50;99.90
28484;DHT22;15704;48.834;8.736;2023-08-07T15:00:45;17.40;99.90
28484;DHT22;15704;48.834;8.736;2023-08-07T15:03:15;17.10;99.90
28484;DHT22;15704;48.834;8.736;2023-08-07T15:05:42;16.60;99.90
28484;DHT22;15704;48.834;8.736;2023-08-07T15:08:09;16.40;99.90
28484;DHT22;15704;48.834;8.736;2023-08-07T15:10:35;16.30;99.90
28484;DHT22;15704;48.834;8.736;2023-08-07T15:13:03;16.20;99.90
28484;DHT22;15704;48.834;8.736;2023-08-07T15:15:30;16.30;99.90
28484;DHT22;15704;48.834;8.736;2023-08-07T15:17:56;16.20;99.90
28484;DHT22;15704;48.834;8.736;2023-08-07T15:20:23;16.40;99.90
28484;DHT22;15704;48.834;8.736;2023-08-07T15:22:51;16.40;99.90
28484;DHT22;15704;48.834;8.736;2023-08-07T15:25:17;16.60;99.90
28484;DHT22;15704;48.834;8.736;2023-08-07T15:27:44;16.80;99.90
28484;DHT22;15704;48.834;8.736;2023-08-07T15:30:11;17.00;99.90
28484;DHT22;15704;48.834;8.736;2023-08-07T15:32:38;16.90;99.90
28484;DHT22;15704;48.834;8.736;2023-08-07T15:35:07;16.80;99.90
28484;DHT22;15704;48.834;8.736;2023-08-07T15:37:34;16.90;99.90
28484;DHT22;15704;48.834;8.736;2023-08-07T15:40:01;16.80;99.90
28484;DHT22;15704;48.834;8.736;2023-08-07T15:42:28;16.80;99.90
28484;DHT22;15704;48.834;8.736;2023-08-07T15:44:55;16.80;99.90